N70VB PAPN-PAII
Flight info
| Callsign | N70VB |
|---|---|
| Flight time | 0h 22m |
| Altitude | 7000 |
| Route | SELBE/N0211F060 LICUG |
| Aircraft | AEST/L-SDFGRY/S |
Departure
| Time | 2026-04-22 23:11 |
|---|---|
| Airport | Pilot Point Airport (PAPN) |
Arrival
| Time | 2026-04-22 23:33 |
|---|---|
| Airport | Egegik Airport (PAII) |
| Time | Latitude | Longitude | Altitude | Speed | Heading |
|---|---|---|---|---|---|
| 2026-04-22 22:53 | 57.57904 | -157.57296 | 84 ft | 0 kts | 176° |
| 2026-04-22 23:02 | 57.57893 | -157.57261 | 87 ft | 8 kts | 101° |
| 2026-04-22 23:02 | 57.57905 | -157.57155 | 86 ft | 13 kts | 70° |
| 2026-04-22 23:03 | 57.57916 | -157.57096 | 83 ft | 0 kts | 64° |
| 2026-04-22 23:07 | 57.57923 | -157.57066 | 83 ft | 10 kts | 66° |
| 2026-04-22 23:07 | 57.58042 | -157.57056 | 56 ft | 21 kts | 295° |
| 2026-04-22 23:08 | 57.58041 | -157.57387 | 50 ft | 29 kts | 271° |
| 2026-04-22 23:08 | 57.58042 | -157.57819 | 41 ft | 36 kts | 270° |
| 2026-04-22 23:08 | 57.58030 | -157.58114 | 37 ft | 8 kts | 256° |
| 2026-04-22 23:08 | 57.58041 | -157.58060 | 39 ft | 0 kts | 89° |
| 2026-04-22 23:10 | 57.58041 | -157.57640 | 43 ft | 71 kts | 91° |
| 2026-04-22 23:10 | 57.58059 | -157.56511 | 180 ft | 94 kts | 90° |
| 2026-04-22 23:10 | 57.58241 | -157.55285 | 492 ft | 110 kts | 56° |
| 2026-04-22 23:11 | 57.58952 | -157.54782 | 826 ft | 117 kts | 355° |
| 2026-04-22 23:11 | 57.59748 | -157.55253 | 1343 ft | 120 kts | 345° |
| 2026-04-22 23:11 | 57.60581 | -157.55219 | 1856 ft | 125 kts | 18° |
| 2026-04-22 23:11 | 57.61401 | -157.54672 | 2421 ft | 126 kts | 22° |
| 2026-04-22 23:12 | 57.62255 | -157.54042 | 2854 ft | 136 kts | 22° |
| 2026-04-22 23:12 | 57.63132 | -157.53385 | 3347 ft | 135 kts | 21° |
| 2026-04-22 23:12 | 57.63993 | -157.52737 | 3757 ft | 133 kts | 21° |
| 2026-04-22 23:12 | 57.64847 | -157.52095 | 4141 ft | 132 kts | 21° |
| 2026-04-22 23:13 | 57.65694 | -157.51458 | 4512 ft | 130 kts | 20° |
| 2026-04-22 23:13 | 57.66528 | -157.50831 | 4858 ft | 128 kts | 20° |
| 2026-04-22 23:13 | 57.67354 | -157.50209 | 5196 ft | 128 kts | 20° |
| 2026-04-22 23:13 | 57.68176 | -157.49589 | 5528 ft | 127 kts | 20° |
| 2026-04-22 23:14 | 57.68999 | -157.48968 | 5863 ft | 129 kts | 20° |
| 2026-04-22 23:14 | 57.69833 | -157.48338 | 6218 ft | 129 kts | 20° |
| 2026-04-22 23:14 | 57.70658 | -157.47714 | 6545 ft | 129 kts | 20° |
| 2026-04-22 23:14 | 57.71493 | -157.47081 | 6873 ft | 129 kts | 19° |
| 2026-04-22 23:15 | 57.72328 | -157.46449 | 7183 ft | 129 kts | 19° |
| 2026-04-22 23:15 | 57.73157 | -157.45822 | 7493 ft | 128 kts | 19° |
| 2026-04-22 23:15 | 57.73983 | -157.45197 | 7795 ft | 128 kts | 19° |
| 2026-04-22 23:15 | 57.74803 | -157.44574 | 8099 ft | 126 kts | 18° |
| 2026-04-22 23:16 | 57.75616 | -157.43960 | 8378 ft | 125 kts | 18° |
| 2026-04-22 23:16 | 57.76420 | -157.43350 | 8645 ft | 124 kts | 18° |
| 2026-04-22 23:16 | 57.77228 | -157.42738 | 8877 ft | 127 kts | 18° |
| 2026-04-22 23:16 | 57.78122 | -157.42063 | 8901 ft | 151 kts | 19° |
| 2026-04-22 23:17 | 57.79159 | -157.41268 | 8831 ft | 173 kts | 20° |
| 2026-04-22 23:17 | 57.80326 | -157.40373 | 8825 ft | 187 kts | 20° |
| 2026-04-22 23:17 | 57.81568 | -157.39427 | 8826 ft | 198 kts | 20° |
| 2026-04-22 23:17 | 57.82871 | -157.38438 | 8826 ft | 206 kts | 20° |
| 2026-04-22 23:18 | 57.84219 | -157.37410 | 8823 ft | 211 kts | 20° |
| 2026-04-22 23:18 | 57.85586 | -157.36362 | 8823 ft | 214 kts | 20° |
| 2026-04-22 23:18 | 57.86974 | -157.35301 | 8825 ft | 216 kts | 20° |
| 2026-04-22 23:18 | 57.88373 | -157.34238 | 8834 ft | 217 kts | 20° |
| 2026-04-22 23:19 | 57.89780 | -157.33163 | 8833 ft | 218 kts | 20° |
| 2026-04-22 23:19 | 57.91168 | -157.32101 | 8832 ft | 218 kts | 20° |
| 2026-04-22 23:19 | 57.92576 | -157.31017 | 8830 ft | 218 kts | 20° |
| 2026-04-22 23:19 | 57.93985 | -157.29938 | 8831 ft | 218 kts | 20° |
| 2026-04-22 23:20 | 57.95386 | -157.28866 | 8833 ft | 217 kts | 20° |
| 2026-04-22 23:20 | 57.96779 | -157.27800 | 8831 ft | 216 kts | 20° |
| 2026-04-22 23:20 | 57.98170 | -157.26744 | 8831 ft | 215 kts | 17° |
| 2026-04-22 23:20 | 57.99629 | -157.26379 | 8855 ft | 211 kts | 357° |
| 2026-04-22 23:21 | 58.01100 | -157.26376 | 8834 ft | 211 kts | 355° |
| 2026-04-22 23:21 | 58.02562 | -157.26408 | 8834 ft | 210 kts | 355° |
| 2026-04-22 23:21 | 58.04025 | -157.26440 | 8834 ft | 210 kts | 355° |
| 2026-04-22 23:21 | 58.05491 | -157.26462 | 8810 ft | 213 kts | 355° |
| 2026-04-22 23:22 | 58.07003 | -157.26484 | 8513 ft | 226 kts | 356° |
| 2026-04-22 23:22 | 58.08602 | -157.26502 | 8231 ft | 233 kts | 356° |
| 2026-04-22 23:22 | 58.10254 | -157.26529 | 7875 ft | 241 kts | 354° |
| 2026-04-22 23:22 | 58.11884 | -157.27236 | 7563 ft | 241 kts | 330° |
| 2026-04-22 23:23 | 58.13237 | -157.29039 | 7260 ft | 236 kts | 315° |
| 2026-04-22 23:23 | 58.14490 | -157.31048 | 6933 ft | 237 kts | 314° |
| 2026-04-22 23:23 | 58.15756 | -157.33093 | 6599 ft | 240 kts | 314° |
| 2026-04-22 23:23 | 58.17040 | -157.35136 | 6279 ft | 242 kts | 315° |
| 2026-04-22 23:24 | 58.18297 | -157.37241 | 5974 ft | 241 kts | 307° |
| 2026-04-22 23:24 | 58.19134 | -157.39905 | 5548 ft | 230 kts | 289° |
| 2026-04-22 23:24 | 58.19767 | -157.42630 | 5144 ft | 223 kts | 288° |
| 2026-04-22 23:24 | 58.20378 | -157.45326 | 4691 ft | 223 kts | 288° |
| 2026-04-22 23:25 | 58.20986 | -157.47958 | 4369 ft | 217 kts | 289° |
| 2026-04-22 23:25 | 58.21587 | -157.50525 | 4162 ft | 209 kts | 289° |
| 2026-04-22 23:25 | 58.22170 | -157.53027 | 3932 ft | 206 kts | 289° |
| 2026-04-22 23:25 | 58.22744 | -157.55499 | 3711 ft | 204 kts | 288° |
| 2026-04-22 23:26 | 58.23310 | -157.57939 | 3532 ft | 201 kts | 289° |
| 2026-04-22 23:26 | 58.23681 | -157.59538 | 3420 ft | 199 kts | 288° |
| 2026-04-22 23:26 | 58.24238 | -157.61944 | 3236 ft | 199 kts | 289° |
| 2026-04-22 23:26 | 58.24801 | -157.64340 | 3050 ft | 199 kts | 292° |
| 2026-04-22 23:27 | 58.25705 | -157.66318 | 2819 ft | 203 kts | 323° |
| 2026-04-22 23:27 | 58.27039 | -157.67196 | 2605 ft | 207 kts | 355° |
| 2026-04-22 23:27 | 58.28438 | -157.66732 | 2447 ft | 205 kts | 26° |
| 2026-04-22 23:27 | 58.29518 | -157.65130 | 2496 ft | 193 kts | 50° |
| 2026-04-22 23:28 | 58.30401 | -157.63237 | 2479 ft | 189 kts | 54° |
| 2026-04-22 23:28 | 58.31015 | -157.61088 | 2505 ft | 182 kts | 82° |
| 2026-04-22 23:28 | 58.31007 | -157.58771 | 2495 ft | 176 kts | 110° |
| 2026-04-22 23:28 | 58.30443 | -157.56785 | 2491 ft | 169 kts | 137° |
| 2026-04-22 23:29 | 58.29572 | -157.55348 | 2479 ft | 163 kts | 143° |
| 2026-04-22 23:29 | 58.28705 | -157.53969 | 2490 ft | 162 kts | 143° |
| 2026-04-22 23:29 | 58.27829 | -157.52568 | 2390 ft | 167 kts | 143° |
| 2026-04-22 23:29 | 58.26929 | -157.51125 | 2263 ft | 171 kts | 142° |
| 2026-04-22 23:30 | 58.26000 | -157.49632 | 1977 ft | 181 kts | 142° |
| 2026-04-22 23:30 | 58.25063 | -157.48133 | 1605 ft | 171 kts | 142° |
| 2026-04-22 23:30 | 58.24202 | -157.46747 | 1519 ft | 148 kts | 142° |
| 2026-04-22 23:30 | 58.23488 | -157.45580 | 1558 ft | 122 kts | 142° |
| 2026-04-22 23:31 | 58.22929 | -157.44669 | 1465 ft | 98 kts | 143° |
| 2026-04-22 23:31 | 58.22419 | -157.43796 | 1191 ft | 94 kts | 139° |
| 2026-04-22 23:31 | 58.21983 | -157.42903 | 989 ft | 96 kts | 136° |
| 2026-04-22 23:31 | 58.21513 | -157.41983 | 761 ft | 95 kts | 137° |
| 2026-04-22 23:32 | 58.21061 | -157.41145 | 530 ft | 88 kts | 142° |
| 2026-04-22 23:32 | 58.20569 | -157.40486 | 388 ft | 87 kts | 152° |
| 2026-04-22 23:32 | 58.20039 | -157.39913 | 324 ft | 88 kts | 155° |
| 2026-04-22 23:32 | 58.19558 | -157.39232 | 223 ft | 86 kts | 142° |
| 2026-04-22 23:33 | 58.19102 | -157.38516 | 109 ft | 83 kts | 142° |
| 2026-04-22 23:33 | 58.18777 | -157.38003 | 88 ft | 40 kts | 140° |
| 2026-04-22 23:33 | 58.18685 | -157.37842 | 84 ft | 10 kts | 133° |
| 2026-04-22 23:33 | 58.18685 | -157.37773 | 85 ft | 6 kts | 44° |
| 2026-04-22 23:34 | 58.18729 | -157.37698 | 85 ft | 12 kts | 45° |
| 2026-04-22 23:34 | 58.18798 | -157.37713 | 85 ft | 15 kts | 313° |
| 2026-04-22 23:34 | 58.18854 | -157.37781 | 86 ft | 7 kts | 41° |
| 2026-04-22 23:34 | 58.18873 | -157.37748 | 85 ft | 1 kts | 17° |
| 2026-04-22 23:35 | 58.18874 | -157.37748 | 85 ft | 0 kts | 17° |